createdAt,value
2023-04-20T00:00:10.983Z,1592.2307
2023-04-20T00:01:11.954Z,1602.0769
2023-04-20T00:02:13.081Z,1606.3846
2023-04-20T00:03:14.303Z,1553.2307
2023-04-20T00:04:15.169Z,1602.0769
2023-04-20T00:05:16.299Z,1601.5385
2023-04-20T00:06:17.258Z,1592.4615
2023-04-20T00:07:18.269Z,1551.1538
2023-04-20T00:08:19.323Z,1584.6154
2023-04-20T00:09:20.348Z,1545.1538
2023-04-20T00:10:21.414Z,1607.2307
2023-04-20T00:11:22.459Z,1603.7693
2023-04-20T00:12:23.464Z,1583.3846
2023-04-20T00:13:24.629Z,1599.0769
2023-04-20T00:14:25.675Z,1565.6154
2023-04-20T00:15:26.775Z,1566.0000
2023-04-20T00:16:27.794Z,1554.0769
2023-04-20T00:17:28.846Z,1596.3077
2023-04-20T00:18:29.862Z,1584.6154
2023-04-20T00:19:30.921Z,1585.5385
2023-04-20T00:20:31.996Z,1578.8462
2023-04-20T00:21:33.008Z,1590.3077
2023-04-20T00:22:34.053Z,1564.6154
2023-04-20T00:23:35.097Z,1581.4615
2023-04-20T00:24:36.174Z,1562.3077
2023-04-20T00:25:37.237Z,1614.2307
2023-04-20T00:26:38.242Z,1625.6154
2023-04-20T00:27:39.278Z,1608.2307
2023-04-20T00:28:40.317Z,1606.2307
2023-04-20T00:29:41.385Z,1624.8462
2023-04-20T00:30:42.459Z,1597.3077
2023-04-20T00:31:43.466Z,1597.5385
2023-04-20T00:32:44.523Z,1592.7693
2023-04-20T00:33:45.536Z,1586.1538
2023-04-20T00:34:46.619Z,1583.5385
2023-04-20T00:35:47.732Z,1617.0769
2023-04-20T00:36:48.703Z,1573.4615
2023-04-20T00:37:49.800Z,1587.9231
2023-04-20T00:38:50.777Z,1593.7693
2023-04-20T00:39:51.799Z,1520.0000
2023-04-20T00:40:52.873Z,1673.4615
2023-04-20T00:41:53.900Z,1568.3077
2023-04-20T00:42:54.954Z,1576.1538
2023-04-20T00:43:55.912Z,1602.7693
2023-04-20T00:44:56.973Z,1615.0000
2023-04-20T00:45:58.040Z,1557.6923
2023-04-20T00:46:59.038Z,1551.9231
2023-04-20T00:48:00.142Z,1617.6923
2023-04-20T00:49:01.139Z,1564.2307
2023-04-20T00:50:02.197Z,1571.6154
2023-04-20T00:51:03.249Z,1591.1538
2023-04-20T00:52:04.317Z,1594.3077
2023-04-20T00:53:05.325Z,1594.3846
2023-04-20T00:54:06.368Z,1592.9231
2023-04-20T00:55:07.444Z,1602.5385
2023-04-20T00:56:08.513Z,1565.6154
2023-04-20T00:57:09.516Z,1600.3077
2023-04-20T00:58:10.560Z,1586.6923
2023-04-20T00:59:11.600Z,1577.0769
2023-04-20T01:00:12.665Z,1600.3077
2023-04-20T01:01:13.774Z,1535.6923
2023-04-20T01:02:14.770Z,1591.3846
2023-04-20T01:03:15.975Z,1617.4615
2023-04-20T01:04:16.993Z,1581.0000
2023-04-20T01:05:17.959Z,1515.4615
2023-04-20T01:06:18.998Z,1587.0769
2023-04-20T01:07:20.046Z,1588.3846
2023-04-20T01:08:21.053Z,1607.4615
2023-04-20T01:09:22.119Z,1580.3077
2023-04-20T01:10:23.169Z,1576.6923
2023-04-20T01:11:24.240Z,1504.1538
2023-04-20T01:12:25.270Z,1621.0000
2023-04-20T01:13:26.291Z,1594.6154
2023-04-20T01:14:27.391Z,1598.9231
2023-04-20T01:15:28.481Z,1536.6154
2023-04-20T01:16:29.577Z,1576.2307
2023-04-20T01:17:30.526Z,1630.5385
2023-04-20T01:18:31.613Z,1571.1538
2023-04-20T01:19:32.650Z,1531.6923
2023-04-20T01:20:33.693Z,1596.0769
2023-04-20T01:21:34.776Z,1639.8462
2023-04-20T01:22:35.879Z,1609.5385
2023-04-20T01:23:36.832Z,1541.0769
2023-04-20T01:24:37.813Z,1587.1538
2023-04-20T01:25:38.832Z,1629.6154
2023-04-20T01:26:39.940Z,1588.0000
2023-04-20T01:27:40.926Z,1591.9231
2023-04-20T01:28:41.965Z,1596.7693
2023-04-20T01:29:43.015Z,1569.7693
2023-04-20T01:30:44.071Z,1558.5385
2023-04-20T01:31:45.244Z,1589.0769
2023-04-20T01:32:46.174Z,1603.9231
2023-04-20T01:33:47.197Z,1548.6154
2023-04-20T01:34:48.216Z,1636.3846
2023-04-20T01:35:49.309Z,1617.3846
2023-04-20T01:36:50.380Z,1605.0769
2023-04-20T01:37:51.378Z,1569.5385
2023-04-20T01:38:52.421Z,1648.5385
2023-04-20T01:39:53.532Z,1613.0769
2023-04-20T01:40:54.491Z,1579.5385
2023-04-20T01:41:55.591Z,1581.6154
2023-04-20T01:42:56.573Z,1581.7693
2023-04-20T01:43:57.641Z,1599.9231
2023-04-20T01:44:58.656Z,1548.8462
2023-04-20T01:45:59.708Z,1620.3077
2023-04-20T01:47:00.951Z,1611.3077
2023-04-20T01:48:01.792Z,1589.7693
2023-04-20T01:49:02.812Z,1583.9231
2023-04-20T01:50:03.889Z,1536.2307
2023-04-20T01:51:04.902Z,1579.8462
2023-04-20T01:52:05.982Z,1593.4615
2023-04-20T01:53:07.002Z,1588.7693
2023-04-20T01:54:08.037Z,1584.3077
2023-04-20T01:55:09.057Z,1564.9231
2023-04-20T01:56:10.104Z,1593.0769
2023-04-20T01:57:11.149Z,1582.8462
2023-04-20T01:58:12.339Z,1559.6923
2023-04-20T01:59:13.336Z,1593.1538
2023-04-20T02:00:14.410Z,1552.6154
2023-04-20T02:01:15.453Z,1611.6154
2023-04-20T02:02:16.547Z,1593.0769
2023-04-20T02:03:17.818Z,1607.3077
2023-04-20T02:04:18.579Z,1582.6923
2023-04-20T02:05:19.575Z,1588.7693
2023-04-20T02:06:20.650Z,1602.0769
2023-04-20T02:07:21.732Z,1624.1538
2023-04-20T02:08:22.776Z,1594.6154
2023-04-20T02:09:23.773Z,1589.0769
2023-04-20T02:10:24.820Z,1583.8462
2023-04-20T02:11:25.873Z,1582.0769
2023-04-20T02:12:26.950Z,1577.9231
2023-04-20T02:13:28.027Z,1591.6154
2023-04-20T02:14:28.994Z,1594.3077
2023-04-20T02:15:30.046Z,1587.3846
2023-04-20T02:16:31.135Z,1586.7693
2023-04-20T02:17:32.195Z,1572.4615
2023-04-20T02:18:33.184Z,1561.7693
2023-04-20T02:19:34.211Z,1575.5385
2023-04-20T02:20:35.273Z,1577.0000
2023-04-20T02:21:36.311Z,1567.9231
2023-04-20T02:22:37.409Z,1596.2307
2023-04-20T02:23:38.394Z,1618.3077
2023-04-20T02:24:39.444Z,1571.3077
2023-04-20T02:25:40.460Z,1563.6154
2023-04-20T02:26:41.511Z,1587.8462
2023-04-20T02:27:42.593Z,1604.5385
2023-04-20T02:28:43.531Z,1590.6154
2023-04-20T02:29:44.578Z,1580.8462
2023-04-20T02:30:45.656Z,1572.0769
2023-04-20T02:31:46.821Z,1567.1538
2023-04-20T02:32:47.769Z,1532.0769
2023-04-20T02:33:48.755Z,1612.6923
2023-04-20T02:34:49.784Z,1540.2307
2023-04-20T02:35:50.827Z,1567.9231
2023-04-20T02:36:51.898Z,1577.4615
2023-04-20T02:37:53.008Z,1587.0000
2023-04-20T02:38:53.963Z,1570.3077
2023-04-20T02:39:55.025Z,1586.4615
2023-04-20T02:40:56.065Z,1570.3846
2023-04-20T02:41:57.120Z,1565.0769
2023-04-20T02:42:58.192Z,1568.0000
2023-04-20T02:43:59.226Z,1549.8462
2023-04-20T02:45:00.290Z,1529.4615
2023-04-20T02:46:01.326Z,1555.4615
2023-04-20T02:47:02.315Z,1635.9231
2023-04-20T02:48:03.541Z,1585.4615
2023-04-20T02:49:04.438Z,1584.6923
2023-04-20T02:50:05.437Z,1555.5385
2023-04-20T02:51:06.499Z,1591.9231
2023-04-20T02:52:07.555Z,1606.1538
2023-04-20T02:53:08.633Z,1586.9231
2023-04-20T02:54:09.624Z,1578.6923
2023-04-20T02:55:10.679Z,1588.3077
2023-04-20T02:56:11.710Z,1582.8462
2023-04-20T02:57:12.767Z,1574.8462
2023-04-20T02:58:13.851Z,1586.7693
2023-04-20T02:59:14.992Z,1560.0000
2023-04-20T03:00:15.913Z,1570.6923
2023-04-20T03:01:16.939Z,1577.6923
2023-04-20T03:02:18.152Z,1581.6154
2023-04-20T03:03:19.273Z,1641.0769
2023-04-20T03:04:20.231Z,1525.1538
2023-04-20T03:05:21.198Z,1572.7693
2023-04-20T03:06:22.287Z,1613.7693
2023-04-20T03:07:23.280Z,1577.7693
2023-04-20T03:08:24.285Z,1572.8462
2023-04-20T03:09:25.299Z,1573.5385
2023-04-20T03:10:26.352Z,1558.8462
2023-04-20T03:11:27.373Z,1570.6923
2023-04-20T03:12:28.398Z,1567.3846
2023-04-20T03:13:29.466Z,1593.0769
2023-04-20T03:14:30.487Z,1565.8462
2023-04-20T03:15:31.644Z,1571.3077
2023-04-20T03:16:32.692Z,1595.9231
2023-04-20T03:17:33.715Z,1575.2307
2023-04-20T03:18:34.756Z,1587.6154
2023-04-20T03:19:35.790Z,1577.4615
2023-04-20T03:20:36.849Z,1591.3846
2023-04-20T03:21:37.870Z,1584.2307
2023-04-20T03:22:38.932Z,1541.9231
2023-04-20T03:23:39.991Z,1554.4615
2023-04-20T03:24:41.030Z,1554.2307
2023-04-20T03:25:42.085Z,1568.4615
2023-04-20T03:26:43.100Z,1567.8462
2023-04-20T03:27:44.166Z,1620.3846
2023-04-20T03:28:45.255Z,1544.0000
2023-04-20T03:29:46.251Z,1538.0000
2023-04-20T03:30:47.283Z,1627.0000
2023-04-20T03:31:48.413Z,1502.0769
2023-04-20T03:32:49.392Z,1576.2307
2023-04-20T03:33:50.422Z,1635.4615
2023-04-20T03:34:51.455Z,1616.0000
2023-04-20T03:35:52.490Z,1546.3846
2023-04-20T03:36:53.509Z,1574.0000
2023-04-20T03:37:54.571Z,1577.0000
2023-04-20T03:38:55.653Z,1575.2307
2023-04-20T03:39:56.651Z,1583.3077
2023-04-20T03:40:57.701Z,1599.0000
2023-04-20T03:41:58.892Z,1581.7693
2023-04-20T03:42:59.908Z,1557.4615
2023-04-20T03:44:00.984Z,1600.0000
2023-04-20T03:45:01.976Z,1584.2307
2023-04-20T03:46:03.122Z,1581.0769
2023-04-20T03:47:04.068Z,1564.3846
2023-04-20T03:48:05.163Z,1558.9231
2023-04-20T03:49:06.189Z,1561.7693
2023-04-20T03:50:07.176Z,1566.7693
2023-04-20T03:51:08.220Z,1570.3077
2023-04-20T03:52:09.304Z,1566.5385
2023-04-20T03:53:10.299Z,1572.2307
2023-04-20T03:54:11.389Z,1561.3846
2023-04-20T03:55:12.418Z,1583.0000
2023-04-20T03:56:13.450Z,1582.9231
2023-04-20T03:57:14.571Z,1581.9231
2023-04-20T03:58:15.526Z,1568.5385
2023-04-20T03:59:16.847Z,1572.3077
2023-04-20T04:00:17.646Z,1584.3846
2023-04-20T04:01:18.673Z,1596.3077
2023-04-20T04:02:19.860Z,1548.8462
2023-04-20T04:03:20.855Z,1575.3846
2023-04-20T04:04:22.261Z,1591.3077
2023-04-20T04:05:22.940Z,1594.2307
2023-04-20T04:06:23.889Z,1600.1538
2023-04-20T04:07:25.019Z,1603.0769
2023-04-20T04:08:26.012Z,1563.5385
2023-04-20T04:09:27.089Z,1568.6154
2023-04-20T04:10:28.077Z,1567.3846
2023-04-20T04:11:29.131Z,1543.3846
2023-04-20T04:12:30.109Z,1622.9231
2023-04-20T04:13:33.133Z,1568.6923
2023-04-20T04:14:32.194Z,1598.3846
2023-04-20T04:15:33.212Z,1590.1538
2023-04-20T04:16:34.280Z,1599.6923
2023-04-20T04:17:35.371Z,1543.6923
2023-04-20T04:18:36.370Z,1597.9231
2023-04-20T04:19:37.432Z,1580.6923
2023-04-20T04:20:38.430Z,1589.7693
2023-04-20T04:21:39.471Z,1572.6154
2023-04-20T04:22:40.509Z,1595.2307
2023-04-20T04:23:41.559Z,1542.1538
2023-04-20T04:24:42.655Z,1592.4615
2023-04-20T04:25:43.649Z,1592.0000
2023-04-20T04:26:44.720Z,1516.2307
2023-04-20T04:27:45.851Z,1552.3077
2023-04-20T04:28:46.812Z,1594.6923
2023-04-20T04:29:47.891Z,1575.1538
2023-04-20T04:30:48.891Z,1565.9231
2023-04-20T04:31:49.997Z,1599.9231
2023-04-20T04:32:51.096Z,1609.0000
2023-04-20T04:33:52.047Z,1586.1538
2023-04-20T04:34:53.139Z,1552.6923
2023-04-20T04:35:54.172Z,1574.6923
2023-04-20T04:36:55.156Z,1589.8462
2023-04-20T04:37:56.292Z,1557.3846
2023-04-20T04:38:57.338Z,1573.1538
2023-04-20T04:39:58.483Z,1599.4615
2023-04-20T04:40:59.557Z,1508.2307
2023-04-20T04:42:00.793Z,1547.4615
2023-04-20T04:43:01.517Z,1581.0769
2023-04-20T04:44:02.565Z,1580.3846
2023-04-20T04:45:03.653Z,1581.3846
2023-04-20T04:46:04.684Z,1595.1538
2023-04-20T04:47:05.690Z,1594.0769
2023-04-20T04:48:08.723Z,1604.3846
2023-04-20T04:49:07.809Z,1502.1538
2023-04-20T04:50:08.884Z,1579.5385
2023-04-20T04:51:09.948Z,1606.4615
2023-04-20T04:52:10.883Z,1582.5385
2023-04-20T04:53:11.840Z,1613.6923
2023-04-20T04:54:12.875Z,1594.4615
2023-04-20T04:55:16.265Z,1579.5385
2023-04-20T04:56:14.994Z,1567.0000
2023-04-20T04:57:16.017Z,1566.0000
2023-04-20T04:58:17.077Z,1620.6154
2023-04-20T04:59:18.330Z,1594.6923
2023-04-20T05:00:19.202Z,1561.5385
2023-04-20T05:01:20.272Z,1597.0769
2023-04-20T05:02:21.280Z,1558.0000
2023-04-20T05:03:22.428Z,1594.2307
2023-04-20T05:04:23.480Z,1606.6923
2023-04-20T05:05:24.382Z,1584.8462
2023-04-20T05:06:25.421Z,1547.1538
2023-04-20T05:07:26.434Z,1534.9231
2023-04-20T05:08:27.483Z,1623.6923
2023-04-20T05:09:28.515Z,1606.1538
2023-04-20T05:10:29.616Z,1600.7693
2023-04-20T05:11:30.695Z,1553.7693
2023-04-20T05:12:31.696Z,1576.2307
2023-04-20T05:13:32.714Z,1605.1538
2023-04-20T05:14:33.773Z,1594.7693
2023-04-20T05:15:34.821Z,1545.0000
2023-04-20T05:16:35.922Z,1582.2307
2023-04-20T05:17:36.949Z,1589.6923
2023-04-20T10:32:47.733Z,1288.0000
2023-04-20T10:33:48.732Z,1289.8462
2023-04-20T10:34:49.848Z,1255.8462
2023-04-20T10:35:50.864Z,1270.2307
2023-04-20T10:36:51.944Z,1299.6154
2023-04-20T10:37:52.945Z,1312.8462
2023-04-20T10:38:53.949Z,1288.0769
2023-04-20T10:39:55.001Z,1283.5385
2023-04-20T10:40:55.966Z,1296.4615
2023-04-20T10:41:57.040Z,1270.0769
2023-04-20T10:42:58.139Z,1267.0769
2023-04-20T10:43:59.191Z,1303.1538
2023-04-20T10:45:00.243Z,1293.2307
2023-04-20T10:46:01.354Z,1285.0769
2023-04-20T10:47:02.364Z,1278.8462
2023-04-20T10:48:03.516Z,1276.9231
2023-04-20T10:49:04.443Z,1274.0000
2023-04-20T10:50:05.470Z,1275.3077
2023-04-20T10:51:06.650Z,1255.2307
2023-04-20T10:52:07.636Z,1270.3846
2023-04-20T10:53:08.594Z,1282.7693
2023-04-20T10:54:09.652Z,1280.7693
2023-04-20T10:55:10.703Z,1280.0000
2023-04-20T10:56:11.733Z,1269.4615
2023-04-20T10:57:12.907Z,1283.0769
2023-04-20T10:58:13.849Z,1279.0769
2023-04-20T10:59:14.925Z,1267.8462
2023-04-20T11:00:15.934Z,1280.6154
2023-04-20T11:01:17.004Z,1284.0769
2023-04-20T11:02:18.270Z,1277.9231
2023-04-20T11:03:19.164Z,1270.2307
2023-04-20T11:04:20.038Z,1269.5385
2023-04-20T11:05:21.111Z,1278.0769
2023-04-20T11:06:22.109Z,1261.2307
2023-04-20T11:07:23.225Z,1297.5385
2023-04-20T11:08:24.223Z,1265.4615
2023-04-20T11:09:25.255Z,1270.1538
2023-04-20T11:10:26.315Z,1260.0769
2023-04-20T11:11:27.402Z,1283.5385
2023-04-20T11:12:28.450Z,1250.2307
2023-04-20T11:13:29.478Z,1278.9231
2023-04-20T11:14:30.530Z,1243.3077
2023-04-20T11:15:31.569Z,1288.7693
2023-04-20T11:16:46.816Z,1290.9231
2023-04-20T11:17:33.782Z,1282.3077
2023-04-20T11:18:34.701Z,1278.9231
2023-04-20T11:19:35.725Z,1274.0769
2023-04-20T11:20:36.793Z,1262.0000
2023-04-20T11:21:37.816Z,1255.5385
2023-04-20T11:22:38.911Z,1289.6154
2023-04-20T11:23:39.966Z,1275.6923
2023-04-20T11:24:40.946Z,1273.0000
2023-04-20T11:25:42.058Z,1279.2307
2023-04-20T11:26:43.086Z,1279.6923
2023-04-20T11:27:44.172Z,1275.8462
2023-04-20T11:28:45.143Z,1279.6923
2023-04-20T11:29:46.212Z,1278.3077
2023-04-20T11:30:47.248Z,1257.4615
2023-04-20T11:31:48.395Z,1288.0769
2023-04-20T11:32:49.600Z,1288.7693
2023-04-20T11:33:50.379Z,1284.7693
2023-04-20T11:34:56.118Z,1277.6923
2023-04-20T11:35:52.458Z,1269.6923
2023-04-20T11:36:53.561Z,1262.6154
2023-04-20T11:37:54.669Z,1284.5385
2023-04-20T11:38:55.682Z,1285.4615
2023-04-20T11:39:56.706Z,1283.4615
2023-04-20T11:40:57.700Z,1273.2307
2023-04-20T11:41:58.736Z,1261.2307
2023-04-20T11:42:59.845Z,1276.1538
2023-04-20T11:44:00.888Z,1280.0000
2023-04-20T11:45:01.894Z,1275.8462
2023-04-20T11:46:03.269Z,1277.0000
2023-04-20T11:47:04.008Z,1276.0769
2023-04-20T11:48:05.105Z,1281.9231
2023-04-20T11:49:06.078Z,1286.1538
2023-04-20T11:50:07.099Z,1282.5385
2023-04-20T11:51:08.148Z,1269.3846
2023-04-20T11:52:09.220Z,1277.4615
2023-04-20T11:53:10.266Z,1274.2307
2023-04-20T11:54:11.292Z,1276.8462
2023-04-20T11:55:12.364Z,1285.3077
2023-04-20T11:56:13.379Z,1282.6923
2023-04-20T11:57:14.405Z,1288.3077
2023-04-20T11:58:15.488Z,1277.7693
2023-04-20T11:59:16.669Z,1277.3846
2023-04-20T12:00:17.528Z,1291.5385
2023-04-20T12:01:18.631Z,1289.8462
2023-04-20T12:02:19.683Z,1268.3846
2023-04-20T12:03:20.954Z,1292.4615
2023-04-20T12:04:22.105Z,1273.5385
2023-04-20T12:05:23.000Z,1344.0769
2023-04-20T12:06:23.936Z,1280.7693
2023-04-20T12:07:24.877Z,1267.7693
2023-04-20T12:08:25.955Z,1284.3846
2023-04-20T12:09:27.031Z,1288.3846
2023-04-20T12:10:28.077Z,1287.6923
2023-04-20T12:11:29.084Z,1290.0000
2023-04-20T12:12:30.123Z,1293.3846
2023-04-20T12:13:31.192Z,1286.6923
2023-04-20T12:14:32.196Z,1302.6154
2023-04-20T12:15:33.267Z,1296.4615
2023-04-20T12:16:34.390Z,1292.5385
2023-04-20T12:17:35.369Z,1283.3846
2023-04-20T12:18:36.391Z,1268.8462
2023-04-20T12:19:37.414Z,1320.7693
2023-04-20T12:20:38.493Z,1307.6923
2023-04-20T12:21:39.555Z,1290.6923
2023-04-20T12:22:40.601Z,1274.9231
2023-04-20T12:23:41.663Z,1279.0000
2023-04-20T12:24:42.652Z,1279.2307
2023-04-20T12:25:43.729Z,1280.3846
2023-04-20T12:26:44.790Z,1283.9231
2023-04-20T12:27:46.817Z,1293.8462
2023-04-20T12:28:46.910Z,1269.3846
2023-04-20T12:29:47.962Z,1277.6154
2023-04-20T12:30:48.992Z,1277.3846
2023-04-20T12:31:50.092Z,1294.6154
2023-04-20T12:32:51.152Z,1292.3846
2023-04-20T12:33:52.149Z,1305.7693
2023-04-20T12:34:53.211Z,1309.7693
2023-04-20T12:35:54.251Z,1298.3077
2023-04-20T12:36:55.311Z,1301.6923
2023-04-20T12:37:56.334Z,1298.8462
2023-04-20T12:38:57.353Z,1293.3846
2023-04-20T12:39:58.413Z,1296.0000
2023-04-20T12:40:59.467Z,1305.2307
2023-04-20T12:42:00.516Z,1296.5385
2023-04-20T12:43:01.588Z,1284.6154
2023-04-20T12:44:05.826Z,1276.0769
2023-04-20T12:45:03.765Z,1298.8462
2023-04-20T12:46:04.743Z,1292.7693
2023-04-20T12:47:05.804Z,1290.6154
2023-04-20T12:48:06.874Z,1280.7693
2023-04-20T12:49:07.903Z,1284.6923
2023-04-20T12:50:08.930Z,1261.3077
2023-04-20T12:51:09.948Z,1313.8462
2023-04-20T12:52:11.022Z,1301.0000
2023-04-20T12:53:12.079Z,1275.0769
2023-04-20T12:54:13.137Z,1239.2307
2023-04-20T12:55:14.151Z,1277.9231
2023-04-20T12:56:15.200Z,1279.8462
2023-04-20T12:57:16.261Z,1279.0769
2023-04-20T12:58:17.304Z,1301.6154
2023-04-20T12:59:18.372Z,1294.7693
2023-04-20T13:00:19.405Z,1287.3077
2023-04-20T13:01:20.475Z,1281.6923
2023-04-20T13:02:21.620Z,1254.6154
2023-04-20T13:03:22.738Z,1262.5385
2023-04-20T13:04:24.106Z,1257.5385
2023-04-20T13:05:24.634Z,1306.9231
2023-04-20T13:06:25.717Z,1275.8462
2023-04-20T13:07:26.710Z,1299.1538
2023-04-20T13:08:27.729Z,1241.8462
2023-04-20T13:09:28.846Z,1280.9231
2023-04-20T13:10:29.925Z,1282.6154
2023-04-20T13:11:30.904Z,1287.6154
2023-04-20T13:12:31.949Z,1311.3846
2023-04-20T13:13:33.007Z,1295.0000
2023-04-20T13:14:34.046Z,1278.2307
2023-04-20T13:15:38.980Z,1283.4615
2023-04-20T13:16:36.174Z,1284.2307
2023-04-20T13:17:37.190Z,1280.9231
2023-04-20T13:18:38.226Z,1287.9231
2023-04-20T13:19:39.266Z,1293.4615
2023-04-20T13:20:40.461Z,1299.6154
2023-04-20T13:21:41.389Z,1300.0769
2023-04-20T13:22:54.537Z,1294.0769
2023-04-20T13:23:43.480Z,1287.5385
2023-04-20T13:24:44.466Z,1274.6154
2023-04-20T13:25:45.578Z,1297.6154
2023-04-20T13:26:46.589Z,1303.0000
2023-04-20T13:27:47.645Z,1277.6154
2023-04-20T13:28:48.655Z,1299.2307
2023-04-20T13:29:49.703Z,1255.6154
2023-04-20T13:30:50.778Z,1266.4615
2023-04-20T13:31:51.992Z,1301.6154
2023-04-20T13:32:52.886Z,1325.4615
2023-04-20T13:33:53.922Z,1296.2307
2023-04-20T13:34:54.971Z,1290.6923
2023-04-20T13:35:56.049Z,1292.6923
2023-04-20T13:36:57.040Z,1288.0769
2023-04-20T13:37:58.129Z,1293.1538
2023-04-20T13:38:59.190Z,1271.3846
2023-04-20T13:40:00.253Z,1278.6154
2023-04-20T13:41:01.307Z,1283.8462
2023-04-20T13:42:02.334Z,1284.2307
2023-04-20T13:43:03.376Z,1290.9231
2023-04-20T13:44:04.479Z,1277.1538
2023-04-20T13:45:05.486Z,1274.6154
2023-04-20T13:46:06.597Z,1280.5385
2023-04-20T13:47:07.570Z,1288.6923
2023-04-20T13:48:08.641Z,1288.9231
2023-04-20T13:49:10.919Z,1287.8462
2023-04-20T13:50:10.804Z,1285.5385
2023-04-20T13:51:11.914Z,1283.5385
2023-04-20T13:52:12.910Z,1255.0000
2023-04-20T13:53:13.958Z,1266.5385
2023-04-20T13:54:14.999Z,1250.6923
2023-04-20T13:55:16.032Z,1292.1538
2023-04-20T13:56:17.139Z,1291.4615
2023-04-20T13:57:18.158Z,1288.3077
2023-04-20T13:58:19.180Z,1276.9231
2023-04-20T13:59:20.251Z,1285.9231
2023-04-20T14:00:21.299Z,1269.0000
2023-04-20T14:01:22.440Z,1274.9231
2023-04-20T14:02:23.503Z,1249.8462
2023-04-20T14:03:24.831Z,1258.0769
2023-04-20T14:04:25.604Z,1282.2307
2023-04-20T14:05:26.527Z,1229.8462
2023-04-20T14:06:27.701Z,1296.3846
2023-04-20T14:07:28.725Z,1287.5385
2023-04-20T14:08:29.716Z,1263.2307
2023-04-20T14:09:30.770Z,1296.3077
2023-04-20T14:10:31.815Z,1269.7693
2023-04-20T14:11:32.994Z,1266.2307
2023-04-20T14:12:33.889Z,1273.6154
2023-04-20T14:13:34.925Z,1274.8462
2023-04-20T14:14:35.971Z,1309.3077
2023-04-20T14:15:37.045Z,1316.7693
2023-04-20T14:16:38.178Z,1303.8462
2023-04-20T14:17:39.104Z,1271.7693
2023-04-20T14:18:40.182Z,1288.2307
2023-04-20T14:19:41.172Z,1286.6923
2023-04-20T14:20:42.235Z,1283.8462
2023-04-20T14:21:43.369Z,1284.2307
2023-04-20T14:22:44.331Z,1284.7693
2023-04-20T14:23:45.414Z,1284.7693
2023-04-20T14:24:46.413Z,1286.9231
2023-04-20T14:25:47.481Z,1281.3846
2023-04-20T14:26:49.036Z,1277.6154
2023-04-20T14:27:49.497Z,1281.2307
2023-04-20T14:28:50.542Z,1279.9231
2023-04-20T14:29:51.592Z,1282.2307
2023-04-20T14:30:52.699Z,1253.6923
2023-04-20T14:31:53.771Z,1269.2307
2023-04-20T14:32:54.897Z,1291.4615
2023-04-20T14:33:55.879Z,1288.8462
2023-04-20T14:34:56.944Z,1287.0769
2023-04-20T14:35:57.956Z,1290.5385
2023-04-20T14:36:59.054Z,1289.5385
2023-04-20T14:38:00.066Z,1293.3846
2023-04-20T14:39:01.096Z,1293.3846
2023-04-20T14:40:02.140Z,1293.1538
2023-04-20T14:41:03.217Z,1294.3077
2023-04-20T14:42:04.275Z,1293.6923
2023-04-20T14:43:05.277Z,1295.8462
2023-04-20T14:44:06.366Z,1290.0769
2023-04-20T14:45:07.395Z,1275.7693
2023-04-20T14:46:08.512Z,1286.6154
2023-04-20T14:47:09.514Z,1289.2307
2023-04-20T14:48:10.534Z,1292.0000
2023-04-20T14:49:11.576Z,1268.3846
2023-04-20T14:50:12.613Z,1287.2307
2023-04-20T14:51:13.674Z,1285.3077
2023-04-20T14:52:14.733Z,1292.3077
2023-04-20T14:53:15.736Z,1283.4615
2023-04-20T14:54:17.079Z,1289.6154
2023-04-20T14:55:17.811Z,1287.0000
2023-04-20T14:56:18.875Z,1300.3077
2023-04-20T14:57:19.932Z,1295.0000
2023-04-20T14:58:20.952Z,1285.2307
2023-04-20T14:59:21.970Z,1297.3846
2023-04-20T15:00:23.038Z,1295.2307
2023-04-20T15:01:24.149Z,1286.7693
2023-04-20T15:02:25.324Z,1286.7693
2023-04-20T15:03:26.319Z,1286.6923
2023-04-20T15:04:27.527Z,1290.0000
2023-04-20T15:05:28.581Z,1293.0769
2023-04-20T15:06:29.303Z,1289.3846
2023-04-20T15:07:30.396Z,1282.6154
2023-04-20T15:08:31.400Z,1283.6923
2023-04-20T15:09:32.420Z,1285.6923
2023-04-20T15:10:34.076Z,1288.0769
2023-04-20T15:11:34.527Z,1289.6154
2023-04-20T15:12:35.581Z,1294.6154
2023-04-20T15:13:36.612Z,1296.2307
2023-04-20T15:14:37.647Z,1299.6923
2023-04-20T15:15:48.467Z,1304.0769
2023-04-20T15:16:39.762Z,1306.1538
2023-04-20T15:17:40.806Z,1283.6923
2023-04-20T15:18:41.806Z,1263.0769
2023-04-20T15:19:42.843Z,1267.0769
2023-04-20T15:20:43.875Z,1286.0769
2023-04-20T15:21:44.932Z,1319.4615
2023-04-20T15:22:46.010Z,1285.8462
2023-04-20T15:23:47.004Z,1310.0769
2023-04-20T15:24:48.116Z,1302.8462
2023-04-20T15:25:49.107Z,1296.2307
2023-04-20T15:26:50.137Z,1300.3846
2023-04-20T15:27:51.223Z,1300.5385
2023-04-20T15:28:52.259Z,1286.0000
2023-04-20T15:29:53.289Z,1285.0769
2023-04-20T15:30:54.335Z,1265.0000
2023-04-20T15:31:55.404Z,1316.9231
2023-04-20T15:32:56.519Z,1310.8462
2023-04-20T15:33:57.632Z,1302.0769
2023-04-20T15:34:58.636Z,1296.9231
2023-04-20T15:35:59.740Z,1292.3846
2023-04-20T15:37:00.684Z,1291.3077
2023-04-20T15:38:01.839Z,1292.4615
2023-04-20T15:39:02.859Z,1292.0000
2023-04-20T15:40:03.819Z,1290.8462
2023-04-20T15:41:04.839Z,1287.0769
2023-04-20T15:42:06.006Z,1291.4615
2023-04-20T15:43:07.021Z,1271.3077
2023-04-20T15:44:08.045Z,1302.0000
2023-04-20T15:45:09.030Z,1286.7693
2023-04-20T15:46:10.172Z,1290.3077
2023-04-20T15:47:11.167Z,1295.2307
2023-04-20T15:48:12.207Z,1293.0769
2023-04-20T15:49:13.226Z,1271.0000
2023-04-20T15:50:14.282Z,1288.5385
2023-04-20T15:51:15.316Z,1286.7693
2023-04-20T15:52:16.367Z,1283.7693
2023-04-20T15:53:17.382Z,1275.0769
2023-04-20T15:54:18.611Z,1288.9231
2023-04-20T15:55:19.493Z,1261.5385
2023-04-20T15:56:20.548Z,1297.3846
2023-04-20T15:57:21.581Z,1291.7693
2023-04-20T15:58:22.638Z,1249.8462
2023-04-20T15:59:23.703Z,1306.4615
2023-04-20T16:00:24.665Z,1318.0000
2023-04-20T16:01:25.821Z,1302.1538
2023-04-20T16:02:26.921Z,1289.6154
2023-04-20T16:03:28.029Z,1287.2307
2023-04-20T16:04:29.044Z,1287.1538
2023-04-20T16:05:29.981Z,1281.3077
2023-04-20T16:06:30.960Z,1281.2307
2023-04-20T16:07:32.045Z,1282.6154
2023-04-20T16:08:33.173Z,1279.0769
2023-04-20T16:09:34.080Z,1281.3846
2023-04-20T16:10:35.200Z,1287.3077
2023-04-20T16:11:37.123Z,1289.4615
2023-04-20T16:12:37.146Z,1284.3846
2023-04-20T16:13:38.226Z,1288.2307
2023-04-20T16:14:39.239Z,1288.0769
2023-04-20T16:15:40.317Z,1287.3846
2023-04-20T16:16:41.378Z,1284.5385
2023-04-20T16:17:42.370Z,1281.4615
2023-04-20T16:18:43.441Z,1280.8462
2023-04-20T16:19:44.458Z,1280.6154
2023-04-20T16:20:45.500Z,1282.7693
2023-04-20T16:21:46.563Z,1282.6923
2023-04-20T16:22:47.618Z,1283.5385
2023-04-20T16:23:48.662Z,1283.8462
2023-04-20T16:24:49.698Z,1286.7693
2023-04-20T16:25:50.736Z,1291.0769
2023-04-20T16:26:51.803Z,1283.0769
2023-04-20T16:27:52.840Z,1260.8462
2023-04-20T16:28:53.937Z,1299.8462
2023-04-20T16:29:54.935Z,1295.6154
2023-04-20T16:30:56.021Z,1287.1538
2023-04-20T16:31:57.080Z,1276.3846
2023-04-20T16:32:58.139Z,1282.0769
2023-04-20T16:33:59.168Z,1286.3077
2023-04-20T16:35:00.177Z,1284.7693
2023-04-20T16:36:01.203Z,1279.0000
2023-04-20T16:37:02.253Z,1281.5385
2023-04-20T16:38:03.321Z,1252.9231
2023-04-20T16:39:04.393Z,1298.7693
2023-04-20T16:40:05.474Z,1276.5385
2023-04-20T16:41:06.471Z,1294.2307
2023-04-20T16:42:07.587Z,1296.3077
2023-04-20T16:43:08.619Z,1284.6154
2023-04-20T16:44:09.684Z,1314.5385
2023-04-20T16:45:10.624Z,1294.4615
2023-04-20T16:46:11.702Z,1295.1538
2023-04-20T16:47:12.694Z,1303.6923
2023-04-20T16:48:13.747Z,1284.3846
2023-04-20T16:49:14.866Z,1305.6154
2023-04-20T16:50:15.866Z,1306.3846